Stations météo

Publicité
Rostrenen, France (7119): Température de l'air & dewpoint: 21.05.2019 05:00:00 - 27.05.2019 05:00:00 (CEST)Rostrenen, France (7119): Vitesse du vent & gusts: 21.05.2019 05:00:00 - 27.05.2019 05:00:00 (CEST)Rostrenen, France (7119): Direction du vent: 21.05.2019 05:00:00 - 27.05.2019 05:00:00 (CEST)Rostrenen, France (7119): Quantités de précipitations: 21.05.2019 05:00:00 - 27.05.2019 05:00:00 (CEST)
Date & Time tt [°C] td [°C] ff [km/h] ff [knt] fx [km/h] fx [knt] dd rr [mm]
27.05.2019 05:00:00 10,4 10,2 8 4 22 12 NNW 0,0
27.05.2019 04:00:00 10,7 10,5 5 3 21 11 NW 0,0
27.05.2019 03:00:00 11,2 11,0 11 6 26 14 NNW 0,0
27.05.2019 02:00:00 12,3 12,1 13 7 28 15 NNW -
27.05.2019 01:00:00 13,1 13,1 9 5 21 11 WNW 0,2
27.05.2019 00:00:00 13,1 13,1 8 4 18 10 WSW 0,0
26.05.2019 23:00:00 13,0 13,0 8 4 18 10 WSW 0,0
26.05.2019 22:00:00 12,9 12,7 11 6 24 13 W 0,2
26.05.2019 21:00:00 13,4 12,5 15 8 28 15 WSW 0,0
26.05.2019 20:00:00 14,1 12,1 11 6 26 14 WSW -
26.05.2019 19:00:00 14,7 12,4 11 6 26 14 W 0,0
26.05.2019 18:00:00 15,0 12,5 11 6 28 15 W 0,0
26.05.2019 17:00:00 15,1 11,9 15 8 26 14 W 0,0
26.05.2019 16:00:00 14,7 12,0 13 7 24 13 WSW 0,0
26.05.2019 15:00:00 14,4 11,7 11 6 26 14 W 0,0
26.05.2019 14:00:00 14,1 11,8 15 8 26 14 W -
26.05.2019 13:00:00 14,4 12,1 8 4 28 15 WNW 0,0
26.05.2019 12:00:00 13,9 11,8 11 6 22 12 W 0,0
26.05.2019 11:00:00 13,1 11,2 11 6 26 14 W 0,0
26.05.2019 10:00:00 12,7 11,8 8 4 22 12 W 0,0
26.05.2019 09:00:00 12,0 11,2 8 4 15 8 W 0,0
26.05.2019 08:00:00 11,3 10,8 8 4 18 10 W -
26.05.2019 07:00:00 11,1 10,6 5 3 15 8 WSW 0,0
26.05.2019 06:00:00 11,1 10,8 5 3 18 10 W 0,0
26.05.2019 05:00:00 11,2 10,9 9 5 26 14 W 0,0
26.05.2019 04:00:00 11,8 11,5 8 4 21 11 WNW 0,0
26.05.2019 03:00:00 12,3 12,0 5 3 22 12 WNW 0,0
26.05.2019 02:00:00 12,7 11,9 9 5 22 12 WNW -
26.05.2019 01:00:00 13,1 12,3 13 7 24 13 NW 0,0
26.05.2019 00:00:00 13,6 12,8 9 5 18 10 WNW 0,0
25.05.2019 23:00:00 14,0 12,4 8 4 18 10 WNW 0,0
25.05.2019 22:00:00 14,3 11,4 9 5 22 12 NNW 0,0
25.05.2019 21:00:00 15,6 11,2 11 6 29 16 NNW 0,0
25.05.2019 20:00:00 17,9 11,7 11 6 22 12 NW -
25.05.2019 19:00:00 17,0 11,0 13 7 24 13 WNW 0,0
25.05.2019 18:00:00 17,9 11,0 9 5 22 12 WNW 0,0
25.05.2019 17:00:00 17,8 10,9 8 4 22 12 WNW 0,0
25.05.2019 16:00:00 17,8 10,9 8 4 21 11 WNW 0,0
25.05.2019 15:00:00 16,5 11,2 9 5 18 10 WNW 0,0
25.05.2019 14:00:00 15,8 11,6 8 4 16 9 NW -
25.05.2019 13:00:00 14,7 11,3 9 5 21 11 WNW 0,0
25.05.2019 12:00:00 14,7 11,1 11 6 26 14 WNW 0,0
25.05.2019 11:00:00 14,1 10,9 11 6 26 14 NW 0,0
25.05.2019 10:00:00 13,2 10,7 11 6 24 13 NW 0,0
25.05.2019 09:00:00 12,3 10,5 11 6 22 12 NW 0,0
25.05.2019 08:00:00 11,6 10,5 5 3 18 10 NNW -
25.05.2019 07:00:00 11,2 10,1 5 3 18 10 NW 0,0
25.05.2019 06:00:00 11,1 10,2 8 4 24 13 NW 0,0
25.05.2019 05:00:00 11,3 10,2 9 5 22 12 NW 0,0
25.05.2019 04:00:00 11,6 9,5 13 7 31 17 NNW 0,0
25.05.2019 03:00:00 11,7 10,1 11 6 26 14 NNW 0,0
25.05.2019 02:00:00 11,9 10,1 13 7 28 15 NNW -
25.05.2019 01:00:00 11,9 9,8 5 3 28 15 NNW 0,0
25.05.2019 00:00:00 11,8 9,5 11 6 29 16 NNW 0,0
24.05.2019 23:00:00 12,1 9,5 11 6 29 16 NNW 0,0
24.05.2019 22:00:00 12,6 9,8 15 8 29 16 NW 0,0
24.05.2019 21:00:00 13,6 9,4 16 9 34 18 NW 0,0
24.05.2019 20:00:00 15,2 10,4 16 9 37 20 NNW -
24.05.2019 19:00:00 14,9 10,1 22 12 39 21 N 0,0
24.05.2019 18:00:00 16,3 9,7 16 9 39 21 NNW 0,0
24.05.2019 17:00:00 16,6 9,8 18 10 34 18 N 0,0
24.05.2019 16:00:00 16,8 9,7 16 9 31 17 NNW 0,0
24.05.2019 15:00:00 17,1 10,5 16 9 34 18 NNW 0,0
24.05.2019 14:00:00 16,7 9,4 15 8 29 16 NNW -
24.05.2019 13:00:00 16,3 8,8 15 8 31 17 NNW 0,0
24.05.2019 12:00:00 15,2 8,7 16 9 31 17 NW 0,0
24.05.2019 11:00:00 14,3 8,5 13 7 34 18 NNW 0,0
24.05.2019 10:00:00 12,7 8,2 16 9 31 17 N 0,0
24.05.2019 09:00:00 11,4 9,6 13 7 24 13 N 0,0
24.05.2019 08:00:00 9,7 9,4 9 5 18 10 NNW -
24.05.2019 07:00:00 8,2 8,2 8 4 15 8 NNW 0,0
24.05.2019 06:00:00 8,1 8,1 8 4 18 10 NNW 0,0
24.05.2019 05:00:00 8,8 8,5 9 5 21 11 NNW 0,0
24.05.2019 04:00:00 8,9 8,6 13 7 21 11 NNW 0,0
24.05.2019 03:00:00 9,4 8,6 11 6 18 10 N 0,0
24.05.2019 02:00:00 9,3 7,7 8 4 15 8 N -
24.05.2019 01:00:00 10,1 7,2 9 5 16 9 N 0,0
24.05.2019 00:00:00 11,6 7,7 8 4 11 6 NNE 0,0
23.05.2019 23:00:00 12,6 7,9 5 3 13 7 N 0,0
23.05.2019 22:00:00 13,5 7,5 8 4 22 12 N 0,0
23.05.2019 21:00:00 14,5 8,0 11 6 22 12 N 0,0
23.05.2019 20:00:00 15,7 8,0 13 7 29 16 N -
23.05.2019 19:00:00 17,0 9,2 16 9 34 18 N 0,0
23.05.2019 18:00:00 19,7 9,8 9 5 22 12 NW 0,0
23.05.2019 17:00:00 19,7 9,8 8 4 21 11 NNW 0,0
23.05.2019 16:00:00 21,7 9,6 8 4 26 14 SSW 0,0
23.05.2019 15:00:00 20,6 9,8 9 5 24 13 SW 0,0
23.05.2019 14:00:00 19,6 10,6 11 6 24 13 SW -
23.05.2019 13:00:00 18,9 8,5 8 4 22 12 S 0,0
23.05.2019 12:00:00 17,2 9,9 5 3 16 9 SW 0,0
23.05.2019 11:00:00 16,4 8,9 4 2 11 6 WSW 0,0
23.05.2019 10:00:00 15,8 10,3 0 0 8 4 N 0,0
23.05.2019 09:00:00 14,6 11,0 0 0 5 3 N 0,0
23.05.2019 08:00:00 12,1 9,7 2 1 4 2 E -
23.05.2019 07:00:00 9,5 8,3 4 2 5 3 NNE 0,0
23.05.2019 06:00:00 9,4 8,0 0 0 9 5 N 0,0
23.05.2019 05:00:00 10,6 7,8 2 1 11 6 W 0,0
23.05.2019 04:00:00 10,7 8,1 4 2 18 10 WNW 0,0
23.05.2019 03:00:00 11,2 8,4 5 3 18 10 WSW 0,0
23.05.2019 02:00:00 12,2 8,5 5 3 15 8 WNW -
23.05.2019 01:00:00 12,9 8,8 9 5 16 9 W 0,0
23.05.2019 00:00:00 14,1 8,9 8 4 18 10 W 0,0
22.05.2019 23:00:00 15,2 9,1 8 4 13 7 WSW 0,0
22.05.2019 22:00:00 16,0 9,9 8 4 16 9 SW 0,0
22.05.2019 21:00:00 17,4 9,6 11 6 22 12 SW 0,0
22.05.2019 20:00:00 19,1 10,4 11 6 31 17 SW -
22.05.2019 19:00:00 19,5 9,4 16 9 28 15 SSW 0,0
22.05.2019 18:00:00 21,2 7,8 15 8 31 17 SW 0,0
22.05.2019 17:00:00 21,1 8,7 11 6 29 16 SSW 0,0
22.05.2019 16:00:00 20,5 10,0 13 7 34 18 SSW 0,0
22.05.2019 15:00:00 21,2 10,9 16 9 35 19 S 0,0
22.05.2019 14:00:00 19,3 9,8 13 7 28 15 SW -
22.05.2019 13:00:00 19,8 10,8 11 6 26 14 SSW 0,0
22.05.2019 12:00:00 19,0 10,0 13 7 22 12 S 0,0
22.05.2019 11:00:00 17,5 11,5 9 5 22 12 S 0,0
22.05.2019 10:00:00 15,3 10,1 5 3 9 5 SSE 0,0
22.05.2019 09:00:00 12,0 9,4 4 2 9 5 ENE 0,0
22.05.2019 08:00:00 9,0 8,4 5 3 9 5 NNE -
22.05.2019 07:00:00 7,6 7,5 8 4 8 4 ENE 0,0
22.05.2019 06:00:00 8,0 7,7 5 3 8 4 ENE 0,0
22.05.2019 05:00:00 8,6 8,0 4 2 8 4 NE 0,0
22.05.2019 04:00:00 8,9 8,0 4 2 9 5 ENE 0,0
22.05.2019 03:00:00 9,6 8,4 8 4 9 5 NNE 0,0
22.05.2019 02:00:00 10,4 8,3 4 2 11 6 ENE -
22.05.2019 01:00:00 10,7 8,5 8 4 9 5 NNE 0,0
22.05.2019 00:00:00 11,3 8,5 5 3 11 6 NNE 0,0
21.05.2019 23:00:00 12,1 8,6 8 4 21 11 NE 0,0
21.05.2019 22:00:00 14,0 7,7 9 5 22 12 NE 0,0
21.05.2019 21:00:00 15,5 7,8 13 7 24 13 NNE 0,0
21.05.2019 20:00:00 16,3 8,8 15 8 29 16 NE -
21.05.2019 19:00:00 17,6 10,2 11 6 26 14 NNE 0,0
21.05.2019 18:00:00 19,4 6,1 9 5 22 12 NW 0,0
21.05.2019 17:00:00 19,9 7,9 8 4 28 15 W 0,0
21.05.2019 16:00:00 18,4 6,9 5 3 18 10 N 0,0
21.05.2019 15:00:00 18,7 6,8 9 5 22 12 NNW 0,0
21.05.2019 14:00:00 18,1 7,2 11 6 21 11 NW -
21.05.2019 13:00:00 17,3 8,4 8 4 16 9 W 0,0
21.05.2019 12:00:00 17,1 8,0 5 3 16 9 NNE 0,0
21.05.2019 11:00:00 16,4 10,0 4 2 11 6 SSE 0,0
21.05.2019 10:00:00 14,3 9,1 4 2 8 4 SE 0,0
21.05.2019 09:00:00 10,6 9,2 2 1 5 3 SW 0,0
21.05.2019 08:00:00 8,8 8,8 4 2 9 5 N -
21.05.2019 07:00:00 6,2 6,2 4 2 9 5 N 0,0
21.05.2019 06:00:00 6,0 6,0 8 4 11 6 N 0,0
21.05.2019 05:00:00 5,7 5,7 5 3 9 5 WNW 0,2

tt = Température de l'air
td = dewpoint
ff = Vitesse du vent
fx = gusts
dd = Direction du vent
rr = Quantités de précipitations

stations d'obs. à proximité